createdAt,value
2019-04-11T00:00:31.341Z,94659.45
2019-04-11T00:03:00.840Z,94659.24
2019-04-11T00:05:30.711Z,94663.72
2019-04-11T00:08:00.205Z,94664.38
2019-04-11T00:10:29.904Z,94660.41
2019-04-11T00:13:01.117Z,94667.65
2019-04-11T00:15:30.715Z,94664.83
2019-04-11T00:18:00.685Z,94665.11
2019-04-11T00:20:29.746Z,94670.04
2019-04-11T00:22:59.700Z,94663.84
2019-04-11T00:25:28.760Z,94667.34
2019-04-11T00:27:57.651Z,94671.52
2019-04-11T00:30:26.548Z,94663.25
2019-04-11T00:32:56.044Z,94659.20
2019-04-11T00:35:25.915Z,94655.03
2019-04-11T00:37:54.852Z,94654.95
2019-04-11T00:40:24.802Z,94656.91
2019-04-11T00:42:54.730Z,94659.56
2019-04-11T00:45:23.782Z,94652.58
2019-04-11T00:47:53.227Z,94651.90
2019-04-11T00:50:23.197Z,94655.97
2019-04-11T00:52:53.831Z,94655.44
2019-04-11T00:55:23.760Z,94650.90
2019-04-11T00:57:53.074Z,94657.80
2019-04-11T01:00:22.865Z,94652.69
2019-04-11T01:02:51.859Z,94646.32
2019-04-11T01:05:21.394Z,94649.98
2019-04-11T01:07:51.274Z,94648.75
2019-04-11T01:10:20.437Z,94647.27
2019-04-11T01:12:49.904Z,94645.94
2019-04-11T01:15:21.631Z,94646.58
2019-04-11T01:17:51.680Z,94650.72
2019-04-11T01:20:21.578Z,94648.77
2019-04-11T01:22:50.824Z,94651.02
2019-04-11T01:25:20.148Z,94649.55
2019-04-11T01:27:50.019Z,94649.19
2019-04-11T01:30:22.848Z,94651.59
2019-04-11T01:32:52.717Z,94651.30
2019-04-11T01:35:21.775Z,94654.44
2019-04-11T01:37:50.771Z,94656.55
2019-04-11T01:40:19.661Z,94658.30
2019-04-11T01:42:49.249Z,94659.88
2019-04-11T01:45:21.163Z,94660.17
2019-04-11T01:48:07.504Z,94658.58
2019-04-11T01:50:38.059Z,94659.84
2019-04-11T01:53:08.850Z,94661.31
2019-04-11T01:55:38.769Z,94659.50
2019-04-11T01:58:08.694Z,94660.95
2019-04-11T02:00:42.117Z,94656.09
2019-04-11T02:03:15.562Z,94665.66
2019-04-11T02:05:45.341Z,94659.25
2019-04-11T02:08:15.321Z,94663.45
2019-04-11T02:10:45.288Z,94666.05
2019-04-11T02:13:15.208Z,94664.38
2019-04-11T02:15:44.384Z,94666.98
2019-04-11T02:18:13.271Z,94665.98
2019-04-11T02:20:42.165Z,94661.01
2019-04-11T02:23:26.775Z,94664.23
2019-04-11T02:26:00.846Z,94665.28
2019-04-11T02:28:30.922Z,94662.71
2019-04-11T02:31:00.225Z,94663.50
2019-04-11T02:33:30.527Z,94657.22
2019-04-11T02:36:00.886Z,94663.73
2019-04-11T02:38:30.513Z,94663.90
2019-04-11T02:41:01.181Z,94663.27
2019-04-11T02:43:31.813Z,94664.92
2019-04-11T02:46:13.053Z,94666.73
2019-04-11T02:48:33.042Z,94669.11
2019-04-11T02:51:02.985Z,94670.58
2019-04-11T02:53:34.362Z,94667.89
2019-04-11T02:56:05.983Z,94669.78
2019-04-11T02:58:36.689Z,94669.62
2019-04-11T03:01:07.482Z,94671.03
2019-04-11T03:03:37.377Z,94667.63
2019-04-11T03:06:07.233Z,94664.41
2019-04-11T03:08:38.790Z,94659.73
2019-04-11T03:11:10.624Z,94656.11
2019-04-11T03:13:40.084Z,94650.72
2019-04-11T03:16:24.988Z,94661.80
2019-04-11T03:18:59.285Z,94658.06
2019-04-11T03:21:17.969Z,94659.59
2019-04-11T03:23:44.029Z,94660.84
2019-04-11T03:26:14.081Z,94662.42
2019-04-11T03:28:47.479Z,94666.16
2019-04-11T03:31:50.599Z,94662.12
2019-04-11T03:39:11.802Z,94663.11
2019-04-11T03:41:36.027Z,94664.97
2019-04-11T03:43:59.321Z,94660.28
2019-04-11T03:46:38.094Z,94656.84
2019-04-11T03:49:01.223Z,94658.15
2019-04-11T03:51:22.758Z,94661.75
2019-04-11T03:53:53.428Z,94660.73
2019-04-11T03:56:24.227Z,94656.94
2019-04-11T03:58:55.333Z,94653.33
2019-04-11T04:01:26.309Z,94655.23
2019-04-11T04:03:55.786Z,94652.26
2019-04-11T04:06:25.590Z,94654.63
2019-04-11T04:08:55.495Z,94659.17
2019-04-11T04:11:27.446Z,94654.91
2019-04-11T04:13:59.897Z,94663.30
2019-04-11T04:16:50.495Z,94665.96
2019-04-11T04:19:35.538Z,94670.44
2019-04-11T04:22:15.964Z,94668.78
2019-04-11T04:24:47.710Z,94664.70
2019-04-11T04:27:17.471Z,94666.91
2019-04-11T04:29:49.643Z,94672.06
2019-04-11T04:32:18.534Z,94663.73
2019-04-11T04:34:50.591Z,94664.24
2019-04-11T04:37:21.429Z,94668.61
2019-04-11T04:40:12.256Z,94669.23
2019-04-11T04:42:27.235Z,94659.03
2019-04-11T04:44:51.679Z,94662.14
2019-04-11T04:47:24.874Z,94663.97
2019-04-11T04:49:52.228Z,94663.47
2019-04-11T04:52:21.463Z,94672.33
2019-04-11T04:54:50.414Z,94665.42
2019-04-11T04:57:21.855Z,94671.54
2019-04-11T04:59:50.757Z,94674.93
2019-04-11T05:02:20.577Z,94672.05
2019-04-11T05:04:49.779Z,94676.66
2019-04-11T05:07:19.390Z,94678.39
2019-04-11T05:09:50.175Z,94679.52
2019-04-11T05:12:20.522Z,94682.35
2019-04-11T05:14:49.982Z,94687.40
2019-04-11T05:17:19.356Z,94674.66
2019-04-11T05:19:48.759Z,94674.10
2019-04-11T05:22:18.934Z,94676.80
2019-04-11T05:24:48.064Z,94675.73
2019-04-11T05:27:17.546Z,94679.47
2019-04-11T05:29:46.356Z,94681.01
2019-04-11T05:32:15.460Z,94688.58
2019-04-11T05:34:45.617Z,94683.31
2019-04-11T05:37:15.309Z,94687.50
2019-04-11T05:39:44.968Z,94686.82
2019-04-11T05:42:17.763Z,94690.11
2019-04-11T05:44:45.152Z,94693.50
2019-04-11T05:47:18.144Z,94685.86
2019-04-11T05:49:46.665Z,94695.38
2019-04-11T05:52:15.780Z,94684.25
2019-04-11T05:54:47.997Z,94679.91
2019-04-11T05:57:22.073Z,94688.05
2019-04-11T05:59:49.943Z,94682.27
2019-04-11T06:02:24.824Z,94685.22
2019-04-11T06:05:02.729Z,94684.42
2019-04-11T06:07:40.030Z,94677.97
2019-04-11T06:10:12.624Z,94685.72
2019-04-11T06:12:58.999Z,94687.99
2019-04-11T06:15:33.273Z,94688.28
2019-04-11T06:18:04.862Z,94690.72
2019-04-11T06:20:45.218Z,94690.79
2019-04-11T06:23:25.456Z,94690.55
2019-04-11T06:26:06.690Z,94693.27
2019-04-11T06:28:36.160Z,94697.11
2019-04-11T06:31:18.726Z,94704.48
2019-04-11T06:33:49.172Z,94695.42
2019-04-11T06:36:23.261Z,94704.08
2019-04-11T06:38:54.692Z,94706.19
2019-04-11T06:41:26.270Z,94703.45
2019-04-11T06:43:56.812Z,94706.13
2019-04-11T06:46:31.317Z,94711.30
2019-04-11T06:49:16.612Z,94711.95
2019-04-11T06:51:50.478Z,94713.44
2019-04-11T06:54:23.613Z,94716.05
2019-04-11T06:56:53.842Z,94719.83
2019-04-11T06:59:28.095Z,94712.56
2019-04-11T07:02:08.013Z,94717.07
2019-04-11T07:04:33.925Z,94716.94
2019-04-11T07:07:04.509Z,94715.45
2019-04-11T07:09:41.426Z,94720.52
2019-04-11T07:12:13.388Z,94719.68
2019-04-11T07:14:53.042Z,94718.66
2019-04-11T07:17:40.444Z,94722.29
2019-04-11T07:20:16.547Z,94723.28
2019-04-11T07:23:03.745Z,94726.93
2019-04-11T07:25:43.693Z,94723.28
2019-04-11T07:28:14.476Z,94728.91
2019-04-11T07:31:02.392Z,94733.87
2019-04-11T07:33:33.316Z,94734.13
2019-04-11T07:36:21.020Z,94723.41
2019-04-11T07:39:07.824Z,94721.98
2019-04-11T07:41:39.247Z,94723.36
2019-04-11T07:44:11.005Z,94717.64
2019-04-11T07:46:58.248Z,94723.39
2019-04-11T07:49:44.987Z,94721.39
2019-04-11T07:52:15.771Z,94717.02
2019-04-11T07:54:45.634Z,94725.86
2019-04-11T07:57:26.344Z,94723.72
2019-04-11T08:00:12.720Z,94719.36
2019-04-11T08:03:01.975Z,94719.24
2019-04-11T08:05:32.608Z,94722.93
2019-04-11T08:08:06.847Z,94723.55
2019-04-11T08:10:44.232Z,94720.31
2019-04-11T08:13:23.861Z,94724.91
2019-04-11T08:16:10.607Z,94727.91
2019-04-11T08:18:57.787Z,94728.00
2019-04-11T08:21:44.291Z,94734.91
2019-04-11T08:24:30.132Z,94737.42
2019-04-11T08:27:00.921Z,94733.38
2019-04-11T08:29:30.555Z,94733.87
2019-04-11T08:32:09.926Z,94734.55
2019-04-11T08:34:43.719Z,94739.17
2019-04-11T08:37:23.315Z,94736.23
2019-04-11T08:39:53.395Z,94740.41
2019-04-11T08:42:40.797Z,94738.08
2019-04-11T08:45:12.665Z,94740.13
2019-04-11T08:47:47.703Z,94747.91
2019-04-11T08:50:16.396Z,94744.16
2019-04-11T08:52:50.043Z,94744.80
2019-04-11T08:55:21.044Z,94745.64
2019-04-11T08:57:51.924Z,94751.64
2019-04-11T09:00:33.064Z,94754.12
2019-04-11T09:03:09.670Z,94755.69
2019-04-11T09:05:40.863Z,94754.68
2019-04-11T09:08:12.575Z,94759.23
2019-04-11T09:11:00.121Z,94761.94
2019-04-11T09:13:31.318Z,94758.25
2019-04-11T09:16:18.329Z,94764.32
2019-04-11T09:18:47.870Z,94765.34
2019-04-11T09:21:34.575Z,94764.66
2019-04-11T09:24:06.124Z,94766.27
2019-04-11T09:26:52.941Z,94768.30
2019-04-11T09:29:24.087Z,94767.00
2019-04-11T09:32:09.804Z,94773.16
2019-04-11T09:34:44.078Z,94768.59
2019-04-11T09:37:16.824Z,94776.52
2019-04-11T09:39:51.033Z,94763.75
2019-04-11T09:42:23.001Z,94777.86
2019-04-11T09:44:57.222Z,94773.25
2019-04-11T09:47:46.131Z,94783.38
2019-04-11T09:50:16.658Z,94777.81
2019-04-11T09:52:47.423Z,94778.25
2019-04-11T09:55:23.760Z,94781.10
2019-04-11T09:57:54.644Z,94785.93
2019-04-11T10:00:32.497Z,94780.07
2019-04-11T10:03:02.975Z,94791.92
2019-04-11T10:05:36.422Z,94783.23
2019-04-11T10:08:10.666Z,94784.62
2019-04-11T10:10:57.545Z,94786.63
2019-04-11T10:13:31.108Z,94785.77
2019-04-11T10:16:11.548Z,94786.13
2019-04-11T10:18:51.567Z,94777.14
2019-04-11T10:21:23.024Z,94779.77
2019-04-11T10:24:01.032Z,94786.30
2019-04-11T10:26:31.979Z,94780.71
2019-04-11T10:29:14.913Z,94778.25
2019-04-11T10:31:48.528Z,94779.23
2019-04-11T10:34:21.778Z,94783.77
2019-04-11T10:36:52.203Z,94781.38
2019-04-11T10:39:22.771Z,94786.36
2019-04-11T10:41:53.817Z,94782.66
2019-04-11T10:44:27.018Z,94780.37
2019-04-11T10:47:10.041Z,94783.61
2019-04-11T10:49:50.656Z,94786.88
2019-04-11T10:52:27.025Z,94783.05
2019-04-11T10:55:15.671Z,94786.05
2019-04-11T10:57:48.764Z,94782.86
2019-04-11T11:00:23.003Z,94779.97
2019-04-11T11:03:11.898Z,94786.38
2019-04-11T11:05:45.353Z,94787.41
2019-04-11T11:08:19.475Z,94779.60
2019-04-11T11:10:52.130Z,94774.82
2019-04-11T11:13:25.655Z,94777.81
2019-04-11T11:15:56.037Z,94775.41
2019-04-11T11:19:06.002Z,94776.27
2019-04-11T11:21:11.314Z,94771.52
2019-04-11T11:23:42.833Z,94767.42
2019-04-11T11:26:14.509Z,94768.62
2019-04-11T11:28:45.094Z,94773.03
2019-04-11T11:31:22.383Z,94777.41
2019-04-11T11:33:51.786Z,94774.88
2019-04-11T11:36:23.426Z,94768.48
2019-04-11T11:39:13.057Z,94781.32
2019-04-11T11:41:44.586Z,94775.84
2019-04-11T11:44:13.871Z,94768.02
2019-04-11T11:46:44.673Z,94778.03
2019-04-11T11:49:14.273Z,94773.22
2019-04-11T11:52:03.996Z,94769.06
2019-04-11T11:54:37.795Z,94767.48
2019-04-11T11:57:08.682Z,94765.05
2019-04-11T11:59:45.181Z,94764.44
2019-04-11T12:02:21.113Z,94767.73
2019-04-11T12:04:56.203Z,94765.53
2019-04-11T12:07:42.994Z,94766.32
2019-04-11T12:10:23.965Z,94769.02
2019-04-11T12:13:08.136Z,94775.64
2019-04-11T12:15:45.503Z,94777.30
2019-04-11T12:18:20.371Z,94780.77
2019-04-11T12:20:59.218Z,94776.40
2019-04-11T12:23:44.775Z,94778.34
2019-04-11T12:26:05.377Z,94776.53
2019-04-11T12:28:54.291Z,94780.98
2019-04-11T12:31:28.701Z,94777.84
2019-04-11T12:34:02.293Z,94783.52
2019-04-11T12:36:46.580Z,94777.84
2019-04-11T12:39:28.679Z,94783.62
2019-04-11T12:41:58.408Z,94782.66
2019-04-11T12:44:31.805Z,94780.59
2019-04-11T12:47:07.594Z,94778.67
2019-04-11T12:49:52.471Z,94774.53
2019-04-11T12:52:31.656Z,94772.13
2019-04-11T12:55:02.096Z,94778.33
2019-04-11T12:57:48.894Z,94770.07
2019-04-11T13:00:19.749Z,94771.55
2019-04-11T13:03:02.555Z,94770.64
2019-04-11T13:05:45.475Z,94781.87
2019-04-11T13:08:19.075Z,94774.63
2019-04-11T13:10:48.276Z,94777.74
2019-04-11T13:13:37.237Z,94777.63
2019-04-11T13:16:12.485Z,94773.14
2019-04-11T13:18:58.873Z,94769.92
2019-04-11T13:21:32.001Z,94772.30
2019-04-11T13:24:02.416Z,94766.53
2019-04-11T13:26:49.510Z,94767.05
2019-04-11T13:29:29.051Z,94766.19
2019-04-11T13:32:17.499Z,94761.96
2019-04-11T13:34:47.933Z,94763.67
2019-04-11T13:37:18.352Z,94758.70
2019-04-11T13:39:48.782Z,94760.05
2019-04-11T13:42:35.601Z,94762.85
2019-04-11T13:45:06.224Z,94759.88
2019-04-11T13:47:52.857Z,94756.47
2019-04-11T13:50:23.259Z,94758.32
2019-04-11T13:53:09.829Z,94754.30
2019-04-11T13:55:38.755Z,94748.41
2019-04-11T13:58:15.441Z,94757.37
2019-04-11T14:00:45.960Z,94760.23
2019-04-11T14:03:34.612Z,94760.83
2019-04-11T14:06:05.043Z,94756.87
2019-04-11T14:08:47.450Z,94755.14
2019-04-11T14:11:17.879Z,94756.03
2019-04-11T14:13:46.778Z,94759.88
2019-04-11T14:16:19.960Z,94748.18
2019-04-11T14:18:56.326Z,94753.71
2019-04-11T14:21:32.691Z,94754.11
2019-04-11T14:24:12.200Z,94760.95
2019-04-11T14:26:48.499Z,94758.80
2019-04-11T14:29:34.284Z,94759.63
2019-04-11T14:32:04.714Z,94763.93
2019-04-11T14:34:40.853Z,94751.19
2019-04-11T14:37:37.811Z,94754.81
2019-04-11T14:40:11.410Z,94758.16
2019-04-11T14:42:50.861Z,94753.70
2019-04-11T14:45:24.467Z,94758.59
2019-04-11T14:47:54.893Z,94755.51
2019-04-11T14:50:25.113Z,94758.70
2019-04-11T14:52:58.409Z,94761.37
2019-04-11T14:55:28.528Z,94761.79
2019-04-11T14:57:58.954Z,94764.23
2019-04-11T15:00:29.586Z,94771.01
2019-04-11T15:03:18.243Z,94777.84
2019-04-11T15:05:48.679Z,94766.78
2019-04-11T15:08:28.210Z,94772.10
2019-04-11T15:10:58.637Z,94765.20
2019-04-11T15:13:29.066Z,94766.09
2019-04-11T15:16:14.503Z,94765.63
2019-04-11T15:18:44.973Z,94772.25
2019-04-11T15:21:18.367Z,94770.97
2019-04-11T15:23:47.337Z,94777.34
2019-04-11T15:26:26.906Z,94771.31
2019-04-11T15:28:57.329Z,94773.81
2019-04-11T15:31:39.932Z,94777.00
2019-04-11T15:34:19.598Z,94775.25
2019-04-11T15:36:50.114Z,94792.58
2019-04-11T15:39:44.366Z,94787.20
2019-04-11T15:42:10.172Z,94790.73
2019-04-11T15:44:46.471Z,94786.59
2019-04-11T15:47:19.008Z,94789.14
2019-04-11T15:50:04.951Z,94799.81
2019-04-11T15:52:34.701Z,94794.58
2019-04-11T15:55:23.419Z,94798.61
2019-04-11T15:57:52.618Z,94800.50
2019-04-11T16:00:23.153Z,94796.22
2019-04-11T16:02:56.548Z,94802.97
2019-04-11T16:05:45.516Z,94794.28
2019-04-11T16:08:31.089Z,94798.03
2019-04-11T16:11:04.229Z,94800.36
2019-04-11T16:13:43.619Z,94812.93
2019-04-11T16:16:12.810Z,94803.98
2019-04-11T16:22:05.384Z,94810.07
2019-04-11T16:24:38.987Z,94812.00
2019-04-11T16:27:16.168Z,94814.39
2019-04-11T16:29:59.092Z,94816.05
2019-04-11T16:32:29.521Z,94804.08
2019-04-11T16:35:09.142Z,94819.16
2019-04-11T16:37:38.665Z,94804.95
2019-04-11T16:40:14.816Z,94829.70
2019-04-11T16:42:44.620Z,94816.95
2019-04-11T16:45:31.862Z,94826.80
2019-04-11T16:48:02.622Z,94828.31
2019-04-11T16:50:31.694Z,94825.78
2019-04-11T16:53:00.700Z,94829.79
2019-04-11T16:55:29.588Z,94830.45
2019-04-11T16:57:58.470Z,94835.28
2019-04-11T17:00:27.468Z,94836.13
2019-04-11T17:02:56.458Z,94833.48
2019-04-11T17:05:26.797Z,94852.19
2019-04-11T17:08:06.219Z,94842.03
2019-04-11T17:10:56.571Z,94842.75
2019-04-11T17:13:25.800Z,94836.41
2019-04-11T17:15:54.399Z,94844.08
2019-04-11T17:18:23.289Z,94840.61
2019-04-11T17:20:52.284Z,94848.28
2019-04-11T17:23:21.173Z,94846.77
2019-04-11T17:25:52.910Z,94842.34
2019-04-11T17:28:23.087Z,94847.05
2019-04-11T17:30:54.784Z,94847.28
2019-04-11T17:33:25.527Z,94847.28
2019-04-11T17:35:53.821Z,94842.66
2019-04-11T17:38:22.715Z,94853.06
2019-04-11T17:40:51.706Z,94840.75
2019-04-11T17:43:20.599Z,94845.73
2019-04-11T17:45:49.489Z,94840.71
2019-04-11T17:48:19.760Z,94842.73
2019-04-11T17:50:48.604Z,94847.00
2019-04-11T17:53:17.491Z,94854.96
2019-04-11T17:55:46.390Z,94861.41
2019-04-11T17:58:15.273Z,94858.60
2019-04-11T18:00:45.702Z,94852.82
2019-04-11T18:03:14.595Z,94863.89
2019-04-11T18:05:46.615Z,94861.31
2019-04-11T18:08:14.320Z,94870.11
2019-04-11T18:10:43.214Z,94865.13
2019-04-11T18:13:12.411Z,94871.87
2019-04-11T18:15:41.403Z,94875.28
2019-04-11T18:18:10.602Z,94872.31
2019-04-11T18:20:39.596Z,94888.25
2019-04-11T18:23:09.102Z,94886.97
2019-04-11T18:25:38.094Z,94883.43
2019-04-11T18:28:07.557Z,94890.14
2019-04-11T18:30:36.491Z,94887.98
2019-04-11T18:33:05.503Z,94904.79
2019-04-11T18:35:34.583Z,94902.41
2019-04-11T18:38:03.472Z,94902.41
2019-04-11T18:40:32.465Z,94905.83
2019-04-11T18:43:01.473Z,94903.91
2019-04-11T18:45:30.350Z,94902.71
2019-04-11T18:47:59.360Z,94909.29
2019-04-11T18:50:28.922Z,94912.92
2019-04-11T18:52:59.516Z,94915.98
2019-04-11T18:55:28.577Z,94917.34
2019-04-11T18:57:57.474Z,94921.92
2019-04-11T19:00:26.802Z,94918.74
2019-04-11T19:02:55.999Z,94925.53
2019-04-11T19:05:29.060Z,94935.96
2019-04-11T19:07:55.640Z,94932.44
2019-04-11T19:10:24.488Z,94932.23
2019-04-11T19:12:55.345Z,94928.66
2019-04-11T19:15:25.444Z,94936.47
2019-04-11T19:18:05.784Z,94941.24
2019-04-11T19:20:24.964Z,94931.31
2019-04-11T19:22:53.855Z,94933.59
2019-04-11T19:25:22.851Z,94939.69
2019-04-11T19:27:54.197Z,94929.67
2019-04-11T19:30:23.951Z,94926.95
2019-04-11T19:32:53.169Z,94933.20
2019-04-11T19:35:22.107Z,94931.87
2019-04-11T19:37:50.998Z,94930.20
2019-04-11T19:40:19.883Z,94930.03
2019-04-11T19:42:49.764Z,94935.17
2019-04-11T19:45:20.298Z,94942.20
2019-04-11T19:47:51.839Z,94941.16
2019-04-11T19:50:19.969Z,94935.72
2019-04-11T19:52:48.848Z,94938.42
2019-04-11T19:55:19.373Z,94936.92
2019-04-11T19:57:48.272Z,94939.87
2019-04-11T20:00:21.585Z,94944.23
2019-04-11T20:02:51.784Z,94938.29
2019-04-11T20:05:21.604Z,94946.96
2019-04-11T20:07:50.490Z,94939.56
2019-04-11T20:10:19.378Z,94942.17
2019-04-11T20:12:48.270Z,94942.68
2019-04-11T20:15:17.162Z,94939.67
2019-04-11T20:17:51.135Z,94942.77
2019-04-11T20:20:16.785Z,94944.62
2019-04-11T20:22:57.951Z,94944.05
2019-04-11T20:25:16.843Z,94946.11
2019-04-11T20:27:48.128Z,94938.73
2019-04-11T20:30:16.736Z,94941.06
2019-04-11T20:32:45.646Z,94939.75
2019-04-11T20:35:14.593Z,94949.50
2019-04-11T20:37:44.687Z,94936.84
2019-04-11T20:40:17.442Z,94941.92
2019-04-11T20:42:44.795Z,94944.97
2019-04-11T20:45:13.891Z,94945.97
2019-04-11T20:47:42.786Z,94947.27
2019-04-11T20:50:11.978Z,94949.44
2019-04-11T20:52:40.872Z,94949.88
2019-04-11T20:55:11.094Z,94949.57
2019-04-11T20:57:41.023Z,94947.13
2019-04-11T21:00:12.447Z,94951.98
2019-04-11T21:02:41.351Z,94951.62
2019-04-11T21:05:11.471Z,94957.09
2019-04-11T21:07:40.361Z,94954.07
2019-04-11T21:10:10.347Z,94949.88
2019-04-11T21:12:39.282Z,94953.77
2019-04-11T21:15:09.800Z,94956.81
2019-04-11T21:17:38.691Z,94960.42
2019-04-11T21:20:09.161Z,94961.30
2019-04-11T21:22:38.012Z,94962.75
2019-04-11T21:25:07.550Z,94961.44
2019-04-11T21:27:36.407Z,94963.63
2019-04-11T21:30:06.820Z,94971.27
2019-04-11T21:32:35.626Z,94959.58
2019-04-11T21:35:06.537Z,94965.06
2019-04-11T21:37:36.737Z,94963.32
2019-04-11T21:40:07.543Z,94965.87
2019-04-11T21:42:36.807Z,94967.25
2019-04-11T21:45:07.449Z,94963.91
2019-04-11T21:47:37.196Z,94959.87
2019-04-11T21:50:09.428Z,94954.94
2019-04-11T21:52:43.444Z,94955.72
2019-04-11T21:55:15.192Z,94968.95
2019-04-11T21:57:41.635Z,94960.59
2019-04-11T22:00:23.183Z,94959.00
2019-04-11T22:02:54.503Z,94965.78
2019-04-11T22:05:23.056Z,94968.92
2019-04-11T22:07:51.945Z,94965.05
2019-04-11T22:10:20.842Z,94960.55
2019-04-11T22:12:49.830Z,94966.31
2019-04-11T22:15:18.720Z,94967.51
2019-04-11T22:17:47.614Z,94962.02
2019-04-11T22:20:17.375Z,94954.20
2019-04-11T22:22:46.314Z,94956.74
2019-04-11T22:25:15.206Z,94962.81
2019-04-11T22:27:44.201Z,94960.25
2019-04-11T22:30:16.264Z,94959.31
2019-04-11T22:32:46.693Z,94956.34
2019-04-11T22:35:15.939Z,94954.86
2019-04-11T22:37:44.784Z,94953.48
2019-04-11T22:40:14.732Z,94954.18
2019-04-11T22:42:43.589Z,94958.38
2019-04-11T22:45:13.812Z,94959.53
2019-04-11T22:47:42.805Z,94959.12
2019-04-11T22:50:13.250Z,94962.42
2019-04-11T22:52:42.805Z,94967.19
2019-04-11T22:55:11.957Z,94967.77
2019-04-11T22:57:43.585Z,94963.72
2019-04-11T23:00:15.218Z,94970.90
2019-04-11T23:02:47.430Z,94968.73
2019-04-11T23:05:17.336Z,94974.21
2019-04-11T23:07:48.346Z,94974.66
2019-04-11T23:10:17.755Z,94969.21
2019-04-11T23:12:46.670Z,94965.12
2019-04-11T23:15:15.768Z,94968.87
2019-04-11T23:17:44.965Z,94967.44
2019-04-11T23:20:14.956Z,94975.97
2019-04-11T23:22:44.074Z,94974.20
2019-04-11T23:25:13.580Z,94974.58
2019-04-11T23:27:42.476Z,94975.52
2019-04-11T23:30:15.896Z,94976.47
2019-04-11T23:32:44.864Z,94976.73
2019-04-11T23:35:13.758Z,94978.61
2019-04-11T23:37:54.525Z,94979.20
2019-04-11T23:40:23.418Z,94976.52
2019-04-11T23:42:52.619Z,94978.75
2019-04-11T23:45:23.044Z,94981.91
2019-04-11T23:47:54.098Z,94984.94
2019-04-11T23:50:24.902Z,94993.50
2019-04-11T23:52:57.045Z,94993.03
2019-04-11T23:55:23.730Z,94990.05
2019-04-11T23:57:52.627Z,94997.00
